Time,TemperatureF,DewpointF,PressureIn,WindDirection,WindDirectionDegrees,WindSpeedMPH,WindSpeedGustMPH,Humidity,HourlyPrecipIn,Conditions,Clouds,dailyrainin,SolarRadiationWatts/m^2,SoftwareType,DateUTC
2013-01-06 00:00:00,35.3,33.2,29.97,SW,217,7.0,12.0,92,0.00,RA,RA,0.00,0.0,WeatherDisplay:10.37,2013-01-06 06:00:00,
2013-01-06 00:05:00,35.4,33.3,29.97,SW,218,7.0,12.0,92,0.00,CLR,CLR,0.00,0.0,WeatherDisplay:10.37,2013-01-06 06:05:00,
2013-01-06 00:10:00,35.4,33.3,29.96,SW,223,7.0,10.0,92,0.00,CLR,CLR,0.00,0.0,WeatherDisplay:10.37,2013-01-06 06:10:00,
2013-01-06 00:15:00,35.3,33.3,29.96,SW,221,8.0,12.0,92,0.00,CLR,CLR,0.00,0.0,WeatherDisplay:10.37,2013-01-06 06:15:00,
2013-01-06 00:20:00,35.4,33.3,29.96,SW,215,6.0,12.0,92,0.00,CLR,CLR,0.00,0.0,WeatherDisplay:10.37,2013-01-06 06:20:00,
2013-01-06 00:25:00,35.3,33.2,29.95,SW,221,5.0,9.0,92,0.00,CLR,CLR,0.00,0.0,WeatherDisplay:10.37,2013-01-06 06:25:00,
2013-01-06 00:35:00,35.2,33.1,29.95,SW,219,6.0,9.0,92,0.00,CLR,CLR,0.00,0.0,WeatherDisplay:10.37,2013-01-06 06:35:00,
2013-01-06 00:40:00,35.2,33.1,29.95,SW,218,7.0,12.0,92,0.00,CLR,CLR,0.00,0.0,WeatherDisplay:10.37,2013-01-06 06:40:00,
2013-01-06 00:50:00,35.2,33.1,29.95,SW,223,5.0,10.0,92,0.00,CLR,CLR,0.00,0.0,WeatherDisplay:10.37,2013-01-06 06:50:00,
2013-01-06 00:55:00,35.2,33.1,29.95,SW,224,8.0,13.0,92,0.00,CLR,CLR,0.00,0.0,WeatherDisplay:10.37,2013-01-06 06:55:00,
2013-01-06 01:00:00,35.2,32.8,29.95,SW,222,7.0,10.0,91,0.00,CLR,CLR,0.00,0.0,WeatherDisplay:10.37,2013-01-06 07:00:00,
2013-01-06 01:05:00,35.3,32.9,29.95,SW,220,7.0,12.0,91,0.00,CLR,CLR,0.00,0.0,WeatherDisplay:10.37,2013-01-06 07:05:00,
2013-01-06 01:10:00,35.5,33.1,29.95,SW,217,8.0,12.0,91,0.00,CLR,CLR,0.00,0.0,WeatherDisplay:10.37,2013-01-06 07:10:00,
2013-01-06 01:15:00,35.5,33.1,29.95,SW,221,7.0,12.0,91,0.00,CLR,CLR,0.00,0.0,WeatherDisplay:10.37,2013-01-06 07:15:00,
2013-01-06 01:20:00,35.4,33.0,29.95,SW,226,7.0,12.0,91,0.00,CLR,CLR,0.00,0.0,WeatherDisplay:10.37,2013-01-06 07:20:00,
2013-01-06 01:30:00,35.5,33.1,29.95,SW,224,7.0,10.0,91,0.00,CLR,CLR,0.00,0.0,WeatherDisplay:10.37,2013-01-06 07:30:00,
2013-01-06 01:35:00,35.6,33.2,29.95,SW,227,6.0,13.0,91,0.00,CLR,CLR,0.00,0.0,WeatherDisplay:10.37,2013-01-06 07:35:00,
2013-01-06 01:40:00,35.6,33.3,29.95,SW,225,8.0,12.0,91,0.00,CLR,CLR,0.00,0.0,WeatherDisplay:10.37,2013-01-06 07:40:00,
2013-01-06 01:45:00,35.7,33.3,29.95,SW,229,8.0,12.0,91,0.00,CLR,CLR,0.00,0.0,WeatherDisplay:10.37,2013-01-06 07:45:00,
2013-01-06 01:50:00,35.7,33.3,29.95,SW,235,8.0,12.0,91,0.00,CLR,CLR,0.00,0.0,WeatherDisplay:10.37,2013-01-06 07:50:00,
2013-01-06 01:55:00,35.8,33.4,29.95,SW,232,9.0,12.0,91,0.00,CLR,CLR,0.00,0.0,WeatherDisplay:10.37,2013-01-06 07:55:00,
2013-01-06 02:00:00,35.9,33.5,29.95,SW,230,8.0,15.0,91,0.00,CLR,CLR,0.00,0.0,WeatherDisplay:10.37,2013-01-06 08:00:00,
2013-01-06 02:05:00,35.9,33.5,29.95,SW,235,10.0,13.0,91,0.00,CLR,CLR,0.00,0.0,WeatherDisplay:10.37,2013-01-06 08:05:00,
2013-01-06 02:15:00,36.1,33.7,29.95,SW,235,12.0,16.0,91,0.00,CLR,CLR,0.00,0.0,WeatherDisplay:10.37,2013-01-06 08:15:00,
2013-01-06 02:20:00,36.0,33.6,29.95,SW,235,9.0,13.0,91,0.00,CLR,CLR,0.00,0.0,WeatherDisplay:10.37,2013-01-06 08:20:00,
2013-01-06 02:25:00,35.9,33.6,29.95,SW,232,10.0,14.0,91,0.00,CLR,CLR,0.00,0.0,WeatherDisplay:10.37,2013-01-06 08:25:00,
2013-01-06 02:30:00,36.0,33.6,29.95,SW,235,9.0,15.0,91,0.00,CLR,CLR,0.00,0.0,WeatherDisplay:10.37,2013-01-06 08:30:00,
2013-01-06 02:35:00,35.9,33.5,29.95,WSW,239,9.0,14.0,91,0.00,CLR,CLR,0.00,0.0,WeatherDisplay:10.37,2013-01-06 08:35:00,
2013-01-06 02:40:00,35.8,33.4,29.94,WSW,243,10.0,14.0,91,0.00,CLR,CLR,0.00,0.0,WeatherDisplay:10.37,2013-01-06 08:40:00,
2013-01-06 02:45:00,35.7,33.6,29.94,WSW,244,8.0,12.0,92,0.00,CLR,CLR,0.00,0.0,WeatherDisplay:10.37,2013-01-06 08:45:00,
2013-01-06 02:50:00,35.7,33.6,29.94,WSW,244,9.0,13.0,92,0.00,CLR,CLR,0.00,0.0,WeatherDisplay:10.37,2013-01-06 08:50:00,
2013-01-06 02:55:00,35.6,33.5,29.94,WSW,242,8.0,13.0,92,0.00,CLR,CLR,0.00,0.0,WeatherDisplay:10.37,2013-01-06 08:55:00,
2013-01-06 03:00:00,35.5,33.4,29.94,WSW,244,9.0,13.0,92,0.00,CLR,CLR,0.00,0.0,WeatherDisplay:10.37,2013-01-06 09:00:00,
2013-01-06 03:10:00,35.6,33.5,29.94,WSW,245,10.0,15.0,92,0.00,CLR,CLR,0.00,0.0,WeatherDisplay:10.37,2013-01-06 09:10:00,
2013-01-06 03:15:00,35.6,33.5,29.94,WSW,242,9.0,13.0,92,0.00,CLR,CLR,0.00,0.0,WeatherDisplay:10.37,2013-01-06 09:15:00,
2013-01-06 03:20:00,35.7,33.6,29.94,WSW,245,9.0,14.0,92,0.00,CLR,CLR,0.00,0.0,WeatherDisplay:10.37,2013-01-06 09:20:00,
2013-01-06 03:25:00,35.7,33.6,29.94,WSW,249,10.0,15.0,92,0.00,CLR,CLR,0.00,0.0,WeatherDisplay:10.37,2013-01-06 09:25:00,
2013-01-06 03:30:00,35.6,33.5,29.94,WSW,249,9.0,13.0,92,0.00,CLR,CLR,0.00,0.0,WeatherDisplay:10.37,2013-01-06 09:30:00,
2013-01-06 03:35:00,35.6,33.5,29.93,WSW,248,8.0,12.0,92,0.00,CLR,CLR,0.00,0.0,WeatherDisplay:10.37,2013-01-06 09:35:00,
2013-01-06 03:40:00,35.7,33.6,29.93,WSW,249,10.0,14.0,92,0.00,CLR,CLR,0.00,0.0,WeatherDisplay:10.37,2013-01-06 09:40:00,
2013-01-06 03:45:00,35.7,33.6,29.93,WSW,248,9.0,13.0,92,0.00,CLR,CLR,0.00,0.0,WeatherDisplay:10.37,2013-01-06 09:45:00,
2013-01-06 03:55:00,35.6,33.5,29.93,WSW,251,9.0,13.0,92,0.00,CLR,CLR,0.00,0.0,WeatherDisplay:10.37,2013-01-06 09:55:00,
2013-01-06 04:00:00,35.6,33.5,29.93,WSW,250,9.0,13.0,92,0.00,CLR,CLR,0.00,0.0,WeatherDisplay:10.37,2013-01-06 10:00:00,
2013-01-06 04:05:00,35.5,33.4,29.93,WSW,250,9.0,16.0,92,0.00,CLR,CLR,0.00,0.0,WeatherDisplay:10.37,2013-01-06 10:05:00,
2013-01-06 04:10:00,35.4,33.3,29.93,WSW,248,8.0,12.0,92,0.00,CLR,CLR,0.00,0.0,WeatherDisplay:10.37,2013-01-06 10:10:00,
2013-01-06 04:15:00,35.3,33.2,29.93,WSW,245,10.0,15.0,92,0.00,CLR,CLR,0.00,0.0,WeatherDisplay:10.37,2013-01-06 10:15:00,
2013-01-06 04:25:00,35.2,33.1,29.93,WSW,253,13.0,18.0,92,0.00,CLR,CLR,0.00,0.0,WeatherDisplay:10.37,2013-01-06 10:25:00,
2013-01-06 04:30:00,35.2,32.6,29.93,WSW,253,8.0,14.0,90,0.00,CLR,CLR,0.00,0.0,WeatherDisplay:10.37,2013-01-06 10:30:00,
2013-01-06 04:40:00,34.1,31.2,29.94,West,271,6.0,8.0,89,0.00,CLR,CLR,0.00,0.0,WeatherDisplay:10.37,2013-01-06 10:40:00,
2013-01-06 04:45:00,33.1,30.2,29.94,West,275,5.0,10.0,89,0.00,CLR,CLR,0.00,0.0,WeatherDisplay:10.37,2013-01-06 10:45:00,
2013-01-06 04:50:00,32.3,29.5,29.94,West,277,7.0,10.0,89,0.00,CLR,CLR,0.00,0.0,WeatherDisplay:10.37,2013-01-06 10:50:00,
2013-01-06 04:55:00,31.7,28.8,29.94,West,279,6.0,10.0,89,0.00,CLR,CLR,0.00,0.0,WeatherDisplay:10.37,2013-01-06 10:55:00,
2013-01-06 05:00:00,31.0,28.2,29.95,WNW,282,7.0,10.0,89,0.00,CLR,CLR,0.00,0.0,WeatherDisplay:10.37,2013-01-06 11:00:00,
2013-01-06 05:05:00,30.3,27.5,29.95,WNW,286,7.0,10.0,89,0.00,CLR,CLR,0.00,0.0,WeatherDisplay:10.37,2013-01-06 11:05:00,
2013-01-06 05:15:00,29.4,26.6,29.96,WNW,282,7.0,12.0,89,0.00,CLR,CLR,0.00,0.0,WeatherDisplay:10.37,2013-01-06 11:15:00,
2013-01-06 05:20:00,29.0,25.9,29.96,WNW,283,8.0,18.0,88,0.00,CLR,CLR,0.00,0.0,WeatherDisplay:10.37,2013-01-06 11:20:00,
2013-01-06 05:25:00,28.6,25.5,29.96,WNW,282,8.0,20.0,88,0.00,CLR,CLR,0.00,0.0,WeatherDisplay:10.37,2013-01-06 11:25:00,
2013-01-06 05:30:00,28.3,25.2,29.97,West,280,8.0,12.0,88,0.00,CLR,CLR,0.00,0.0,WeatherDisplay:10.37,2013-01-06 11:30:00,
2013-01-06 05:35:00,28.3,25.5,29.97,West,279,7.0,13.0,89,0.00,CLR,CLR,0.00,0.0,WeatherDisplay:10.37,2013-01-06 11:35:00,
2013-01-06 05:40:00,28.3,25.4,29.97,WNW,282,8.0,14.0,89,0.00,CLR,CLR,0.00,0.0,WeatherDisplay:10.37,2013-01-06 11:40:00,
2013-01-06 05:45:00,28.2,25.4,29.98,WNW,285,7.0,12.0,89,0.00,CLR,CLR,0.00,0.0,WeatherDisplay:10.37,2013-01-06 11:45:00,
2013-01-06 05:55:00,27.7,24.6,29.98,West,276,7.0,12.0,88,0.00,CLR,CLR,0.00,0.0,WeatherDisplay:10.37,2013-01-06 11:55:00,
2013-01-06 06:00:00,27.4,24.3,29.98,West,279,8.0,14.0,88,0.00,CLR,CLR,0.00,0.0,WeatherDisplay:10.37,2013-01-06 12:00:00,
2013-01-06 06:05:00,27.1,24.0,29.98,West,280,7.0,10.0,88,0.00,CLR,CLR,0.00,0.0,WeatherDisplay:10.37,2013-01-06 12:05:00,
2013-01-06 06:10:00,27.0,23.9,29.99,West,280,7.0,13.0,88,0.00,CLR,CLR,0.00,0.0,WeatherDisplay:10.37,2013-01-06 12:10:00,
2013-01-06 06:15:00,26.7,23.4,29.99,WNW,283,8.0,14.0,87,0.00,CLR,CLR,0.00,0.0,WeatherDisplay:10.37,2013-01-06 12:15:00,
2013-01-06 06:20:00,26.3,23.0,29.99,WNW,282,8.0,13.0,87,0.00,CLR,CLR,0.00,0.0,WeatherDisplay:10.37,2013-01-06 12:20:00,
2013-01-06 06:25:00,26.1,22.5,29.99,West,278,7.0,13.0,86,0.00,CLR,CLR,0.00,0.0,WeatherDisplay:10.37,2013-01-06 12:25:00,
2013-01-06 06:30:00,25.6,22.0,29.99,West,278,7.0,12.0,86,0.00,CLR,CLR,0.00,0.0,WeatherDisplay:10.37,2013-01-06 12:30:00,
2013-01-06 06:35:00,25.2,21.9,30.00,West,281,8.0,12.0,87,0.00,CLR,CLR,0.00,0.0,WeatherDisplay:10.37,2013-01-06 12:35:00,
2013-01-06 06:40:00,24.8,21.5,30.00,WNW,284,9.0,15.0,87,0.00,CLR,CLR,0.00,0.0,WeatherDisplay:10.37,2013-01-06 12:40:00,
2013-01-06 06:50:00,24.5,21.4,30.00,WNW,284,7.0,12.0,88,0.00,CLR,CLR,0.00,0.0,WeatherDisplay:10.37,2013-01-06 12:50:00,
2013-01-06 06:55:00,24.7,21.6,30.00,West,279,8.0,16.0,88,0.00,CLR,CLR,0.00,0.0,WeatherDisplay:10.37,2013-01-06 12:55:00,
2013-01-06 07:05:00,24.8,21.8,30.00,West,275,7.0,13.0,88,0.00,CLR,CLR,0.00,0.0,WeatherDisplay:10.37,2013-01-06 13:05:00,
2013-01-06 07:10:00,24.8,22.0,30.00,West,273,8.0,15.0,89,0.00,CLR,CLR,0.00,0.0,WeatherDisplay:10.37,2013-01-06 13:10:00,
2013-01-06 07:15:00,24.7,21.6,30.01,West,273,8.0,14.0,88,0.00,CLR,CLR,0.00,0.0,WeatherDisplay:10.37,2013-01-06 13:15:00,
2013-01-06 07:20:00,24.3,21.3,30.01,West,274,7.0,12.0,88,0.00,CLR,CLR,0.00,0.0,WeatherDisplay:10.37,2013-01-06 13:20:00,
2013-01-06 07:30:00,23.8,20.8,30.01,West,279,7.0,19.0,88,0.00,CLR,CLR,0.00,0.0,WeatherDisplay:10.37,2013-01-06 13:30:00,
2013-01-06 07:35:00,23.4,20.1,30.01,WNW,284,8.0,20.0,87,0.00,CLR,CLR,0.00,0.0,WeatherDisplay:10.37,2013-01-06 13:35:00,
2013-01-06 07:40:00,23.2,19.9,30.02,WNW,286,7.0,13.0,87,0.00,CLR,CLR,0.00,0.0,WeatherDisplay:10.37,2013-01-06 13:40:00,
2013-01-06 07:45:00,23.1,20.1,30.02,WNW,284,6.0,12.0,88,0.00,CLR,CLR,0.00,0.0,WeatherDisplay:10.37,2013-01-06 13:45:00,
2013-01-06 07:50:00,23.1,20.1,30.03,WNW,285,7.0,12.0,88,0.00,CLR,CLR,0.00,0.0,WeatherDisplay:10.37,2013-01-06 13:50:00,
2013-01-06 08:00:00,23.1,20.1,30.03,WNW,286,6.0,13.0,88,0.00,CLR,CLR,0.00,0.0,WeatherDisplay:10.37,2013-01-06 14:00:00,
2013-01-06 08:05:00,23.2,20.2,30.03,WNW,286,7.0,13.0,88,0.00,CLR,CLR,0.00,0.0,WeatherDisplay:10.37,2013-01-06 14:05:00,
2013-01-06 08:10:00,23.2,19.9,30.03,WNW,287,6.0,13.0,87,0.00,CLR,CLR,0.00,0.0,WeatherDisplay:10.37,2013-01-06 14:10:00,
2013-01-06 08:15:00,23.1,19.8,30.03,WNW,286,7.0,13.0,87,0.00,CLR,CLR,0.00,0.0,WeatherDisplay:10.37,2013-01-06 14:15:00,
2013-01-06 08:25:00,23.0,19.7,30.03,WNW,285,8.0,12.0,87,0.00,CLR,CLR,0.00,0.0,WeatherDisplay:10.37,2013-01-06 14:25:00,
2013-01-06 08:30:00,22.9,19.6,30.04,West,281,7.0,14.0,87,0.00,CLR,CLR,0.00,0.0,WeatherDisplay:10.37,2013-01-06 14:30:00,
2013-01-06 08:35:00,22.9,19.6,30.05,West,281,6.0,12.0,87,0.00,CLR,CLR,0.00,0.0,WeatherDisplay:10.37,2013-01-06 14:35:00,
2013-01-06 08:40:00,22.8,19.5,30.05,WNW,283,8.0,12.0,87,0.00,CLR,CLR,0.00,0.0,WeatherDisplay:10.37,2013-01-06 14:40:00,
2013-01-06 08:45:00,22.8,19.5,30.05,WNW,284,8.0,12.0,87,0.00,CLR,CLR,0.00,0.0,WeatherDisplay:10.37,2013-01-06 14:45:00,
2013-01-06 08:50:00,22.7,19.4,30.06,WNW,282,7.0,12.0,87,0.00,CLR,CLR,0.00,0.0,WeatherDisplay:10.37,2013-01-06 14:50:00,
2013-01-06 08:55:00,22.5,19.2,30.06,West,281,6.0,12.0,87,0.00,CLR,CLR,0.00,0.0,WeatherDisplay:10.37,2013-01-06 14:55:00,
2013-01-06 09:00:00,22.6,19.3,30.06,WNW,286,7.0,10.0,87,0.00,CLR,CLR,0.00,0.0,WeatherDisplay:10.37,2013-01-06 15:00:00,
2013-01-06 09:05:00,22.7,19.4,30.07,WNW,289,7.0,14.0,87,0.00,CLR,CLR,0.00,0.0,WeatherDisplay:10.37,2013-01-06 15:05:00,
2013-01-06 09:10:00,22.7,19.4,30.07,WNW,287,7.0,13.0,87,0.00,CLR,CLR,0.00,0.0,WeatherDisplay:10.37,2013-01-06 15:10:00,
2013-01-06 09:15:00,22.7,19.4,30.07,WNW,285,7.0,12.0,87,0.00,CLR,CLR,0.00,0.0,WeatherDisplay:10.37,2013-01-06 15:15:00,
2013-01-06 09:20:00,22.8,19.5,30.07,WNW,283,6.0,12.0,87,0.00,CLR,CLR,0.00,0.0,WeatherDisplay:10.37,2013-01-06 15:20:00,
2013-01-06 09:25:00,23.4,20.4,30.08,West,280,6.0,14.0,88,0.00,CLR,CLR,0.00,0.0,WeatherDisplay:10.37,2013-01-06 15:25:00,
2013-01-06 09:30:00,24.3,21.2,30.08,WNW,284,6.0,12.0,88,0.00,CLR,CLR,0.00,0.0,WeatherDisplay:10.37,2013-01-06 15:30:00,
2013-01-06 09:35:00,24.4,20.8,30.08,WNW,288,6.0,12.0,86,0.00,CLR,CLR,0.00,0.0,WeatherDisplay:10.37,2013-01-06 15:35:00,
2013-01-06 09:40:00,24.1,20.5,30.08,WNW,289,8.0,12.0,86,0.00,CLR,CLR,0.00,0.0,WeatherDisplay:10.37,2013-01-06 15:40:00,
2013-01-06 09:45:00,24.1,20.8,30.08,WNW,288,6.0,12.0,87,0.00,CLR,CLR,0.00,0.0,WeatherDisplay:10.37,2013-01-06 15:45:00,
2013-01-06 09:50:00,23.9,20.3,30.09,WNW,290,8.0,13.0,86,0.00,CLR,CLR,0.00,0.0,WeatherDisplay:10.37,2013-01-06 15:50:00,
2013-01-06 09:55:00,23.9,20.6,30.09,WNW,287,8.0,12.0,87,0.00,CLR,CLR,0.00,0.0,WeatherDisplay:10.37,2013-01-06 15:55:00,
2013-01-06 10:00:00,23.8,19.9,30.09,WNW,291,9.0,14.0,85,0.00,CLR,CLR,0.00,0.0,WeatherDisplay:10.37,2013-01-06 16:00:00,
2013-01-06 10:05:00,23.8,20.5,30.10,WNW,289,6.0,12.0,87,0.00,CLR,CLR,0.00,0.0,WeatherDisplay:10.37,2013-01-06 16:05:00,
2013-01-06 10:10:00,24.4,21.1,30.10,WNW,282,7.0,12.0,87,0.00,CLR,CLR,0.00,0.0,WeatherDisplay:10.37,2013-01-06 16:10:00,
2013-01-06 10:15:00,24.4,20.8,30.10,West,280,7.0,12.0,86,0.00,CLR,CLR,0.00,0.0,WeatherDisplay:10.37,2013-01-06 16:15:00,
2013-01-06 10:20:00,24.9,21.6,30.10,West,280,7.0,13.0,87,0.00,CLR,CLR,0.00,0.0,WeatherDisplay:10.37,2013-01-06 16:20:00,
2013-01-06 10:25:00,25.4,21.8,30.10,WNW,282,6.0,10.0,86,0.00,CLR,CLR,0.00,0.0,WeatherDisplay:10.37,2013-01-06 16:25:00,
2013-01-06 10:30:00,25.8,21.9,30.10,WNW,286,8.0,14.0,85,0.00,CLR,CLR,0.00,0.0,WeatherDisplay:10.37,2013-01-06 16:30:00,
2013-01-06 10:35:00,25.9,22.0,30.10,WNW,293,9.0,14.0,85,0.00,CLR,CLR,0.00,0.0,WeatherDisplay:10.37,2013-01-06 16:35:00,
2013-01-06 10:40:00,25.9,22.0,30.10,WNW,296,9.0,12.0,85,0.00,CLR,CLR,0.00,0.0,WeatherDisplay:10.37,2013-01-06 16:40:00,
2013-01-06 10:45:00,26.2,22.6,30.10,WNW,296,7.0,12.0,86,0.00,CLR,CLR,0.00,0.0,WeatherDisplay:10.37,2013-01-06 16:45:00,
2013-01-06 10:50:00,26.5,22.6,30.10,WNW,292,7.0,12.0,85,0.00,CLR,CLR,0.00,0.0,WeatherDisplay:10.37,2013-01-06 16:50:00,
2013-01-06 10:55:00,26.5,22.3,30.10,WNW,290,7.0,14.0,84,0.00,CLR,CLR,0.00,0.0,WeatherDisplay:10.37,2013-01-06 16:55:00,
2013-01-06 11:00:00,26.8,23.2,30.10,WNW,293,7.0,13.0,86,0.00,CLR,CLR,0.00,0.0,WeatherDisplay:10.37,2013-01-06 17:00:00,
2013-01-06 11:10:00,26.9,22.7,30.10,WNW,289,9.0,12.0,84,0.00,CLR,CLR,0.00,0.0,WeatherDisplay:10.37,2013-01-06 17:10:00,
2013-01-06 11:20:00,26.9,22.7,30.10,WNW,290,7.0,13.0,84,0.00,CLR,CLR,0.00,0.0,WeatherDisplay:10.37,2013-01-06 17:20:00,
2013-01-06 11:25:00,27.4,23.5,30.10,WNW,289,8.0,12.0,85,0.00,CLR,CLR,0.00,0.0,WeatherDisplay:10.37,2013-01-06 17:25:00,
2013-01-06 11:35:00,27.6,23.7,30.10,WNW,285,6.0,9.0,85,0.00,CLR,CLR,0.00,0.0,WeatherDisplay:10.37,2013-01-06 17:35:00,
2013-01-06 11:45:00,27.8,23.6,30.10,WNW,292,7.0,10.0,84,0.00,CLR,CLR,0.00,0.0,WeatherDisplay:10.37,2013-01-06 17:45:00,
2013-01-06 11:50:00,27.7,23.5,30.10,WNW,288,8.0,14.0,84,0.00,CLR,CLR,0.00,0.0,WeatherDisplay:10.37,2013-01-06 17:50:00,
2013-01-06 11:55:00,28.2,24.3,30.10,WNW,290,8.0,12.0,85,0.00,CLR,CLR,0.00,0.0,WeatherDisplay:10.37,2013-01-06 17:55:00,
2013-01-06 12:05:00,28.3,24.1,30.10,WNW,286,7.0,13.0,84,0.00,CLR,CLR,0.00,0.0,WeatherDisplay:10.37,2013-01-06 18:05:00,
2013-01-06 12:15:00,28.7,24.5,30.10,WNW,292,6.0,12.0,84,0.00,CLR,CLR,0.00,0.0,WeatherDisplay:10.37,2013-01-06 18:15:00,
2013-01-06 12:20:00,28.9,24.7,30.10,WNW,291,7.0,9.0,84,0.00,CLR,CLR,0.00,0.0,WeatherDisplay:10.37,2013-01-06 18:20:00,
2013-01-06 12:25:00,29.0,24.5,30.10,WNW,291,8.0,13.0,83,0.00,CLR,CLR,0.00,0.0,WeatherDisplay:10.37,2013-01-06 18:25:00,
2013-01-06 12:30:00,29.3,25.1,30.11,WNW,291,7.0,12.0,84,0.00,CLR,CLR,0.00,0.0,WeatherDisplay:10.37,2013-01-06 18:30:00,
2013-01-06 12:35:00,29.6,25.1,30.11,WNW,296,6.0,12.0,83,0.00,CLR,CLR,0.00,0.0,WeatherDisplay:10.37,2013-01-06 18:35:00,
2013-01-06 12:40:00,29.8,25.3,30.11,WNW,292,8.0,14.0,83,0.00,CLR,CLR,0.00,0.0,WeatherDisplay:10.37,2013-01-06 18:40:00,
2013-01-06 12:45:00,30.0,25.4,30.11,WNW,292,6.0,10.0,83,0.00,CLR,CLR,0.00,0.0,WeatherDisplay:10.37,2013-01-06 18:45:00,
2013-01-06 12:50:00,30.5,25.7,30.11,WNW,295,6.0,12.0,82,0.00,CLR,CLR,0.00,0.0,WeatherDisplay:10.37,2013-01-06 18:50:00,
2013-01-06 12:55:00,31.0,26.2,30.12,WNW,294,8.0,13.0,82,0.00,CLR,CLR,0.00,0.0,WeatherDisplay:10.37,2013-01-06 18:55:00,
2013-01-06 13:00:00,31.5,26.3,30.12,WNW,294,8.0,13.0,81,0.00,CLR,CLR,0.00,0.0,WeatherDisplay:10.37,2013-01-06 19:00:00,
2013-01-06 13:05:00,31.4,26.3,30.12,WNW,295,7.0,14.0,81,0.00,CLR,CLR,0.00,0.0,WeatherDisplay:10.37,2013-01-06 19:05:00,
2013-01-06 13:10:00,31.9,26.4,30.12,WNW,296,8.0,14.0,80,0.00,CLR,CLR,0.00,0.0,WeatherDisplay:10.37,2013-01-06 19:10:00,
2013-01-06 13:15:00,32.1,27.3,30.12,WNW,298,8.0,12.0,82,0.00,CLR,CLR,0.00,0.0,WeatherDisplay:10.37,2013-01-06 19:15:00,
2013-01-06 13:20:00,32.6,27.1,30.12,WNW,301,7.0,13.0,80,0.00,CLR,CLR,0.00,0.0,WeatherDisplay:10.37,2013-01-06 19:20:00,
2013-01-06 13:25:00,32.9,27.4,30.12,WNW,298,6.0,13.0,80,0.00,CLR,CLR,0.00,0.0,WeatherDisplay:10.37,2013-01-06 19:25:00,
2013-01-06 13:30:00,32.9,27.1,30.12,WNW,291,9.0,12.0,79,0.00,CLR,CLR,0.00,0.0,WeatherDisplay:10.37,2013-01-06 19:30:00,
2013-01-06 13:35:00,32.6,26.5,30.12,WNW,289,9.0,13.0,78,0.00,CLR,CLR,0.00,0.0,WeatherDisplay:10.37,2013-01-06 19:35:00,
2013-01-06 13:40:00,32.4,26.6,30.13,WNW,294,7.0,12.0,79,0.00,CLR,CLR,0.00,0.0,WeatherDisplay:10.37,2013-01-06 19:40:00,
2013-01-06 13:50:00,32.6,26.8,30.13,WNW,293,8.0,13.0,79,0.00,CLR,CLR,0.00,0.0,WeatherDisplay:10.37,2013-01-06 19:50:00,
2013-01-06 13:55:00,32.8,27.0,30.13,WNW,287,7.0,14.0,79,0.00,CLR,CLR,0.00,0.0,WeatherDisplay:10.37,2013-01-06 19:55:00,
2013-01-06 14:00:00,32.7,27.2,30.14,WNW,288,7.0,12.0,80,0.00,CLR,CLR,0.00,0.0,WeatherDisplay:10.37,2013-01-06 20:00:00,
2013-01-06 14:15:00,33.4,27.3,30.14,WNW,300,7.0,13.0,78,0.00,CLR,CLR,0.00,0.0,WeatherDisplay:10.37,2013-01-06 20:15:00,
2013-01-06 14:20:00,33.2,26.8,30.14,WNW,297,8.0,12.0,77,0.00,CLR,CLR,0.00,0.0,WeatherDisplay:10.37,2013-01-06 20:20:00,
2013-01-06 14:25:00,33.0,26.9,30.14,WNW,297,7.0,14.0,78,0.00,CLR,CLR,0.00,0.0,WeatherDisplay:10.37,2013-01-06 20:25:00,
2013-01-06 14:30:00,33.3,27.2,30.15,WNW,303,8.0,13.0,78,0.00,CLR,CLR,0.00,0.0,WeatherDisplay:10.37,2013-01-06 20:30:00,
2013-01-06 14:35:00,33.0,26.6,30.15,WNW,298,9.0,14.0,77,0.00,CLR,CLR,0.00,0.0,WeatherDisplay:10.37,2013-01-06 20:35:00,
2013-01-06 14:40:00,33.0,26.6,30.15,WNW,296,8.0,10.0,77,0.00,CLR,CLR,0.00,0.0,WeatherDisplay:10.37,2013-01-06 20:40:00,
2013-01-06 14:45:00,33.3,26.9,30.15,WNW,297,7.0,10.0,77,0.00,CLR,CLR,0.00,0.0,WeatherDisplay:10.37,2013-01-06 20:45:00,
2013-01-06 14:55:00,33.4,26.9,30.17,WNW,297,7.0,12.0,77,0.00,CLR,CLR,0.00,0.0,WeatherDisplay:10.37,2013-01-06 20:55:00,
2013-01-06 15:05:00,33.4,26.9,30.18,WNW,294,6.0,12.0,77,0.00,CLR,CLR,0.00,0.0,WeatherDisplay:10.37,2013-01-06 21:05:00,
2013-01-06 15:10:00,33.3,26.9,30.18,NW,307,8.0,12.0,77,0.00,CLR,CLR,0.00,0.0,WeatherDisplay:10.37,2013-01-06 21:10:00,
2013-01-06 15:15:00,33.3,26.9,30.18,NW,309,7.0,10.0,77,0.00,CLR,CLR,0.00,0.0,WeatherDisplay:10.37,2013-01-06 21:15:00,
2013-01-06 15:20:00,33.1,26.7,30.18,NW,306,7.0,12.0,77,0.00,CLR,CLR,0.00,0.0,WeatherDisplay:10.37,2013-01-06 21:20:00,
2013-01-06 15:25:00,32.6,26.1,30.19,NW,305,7.0,10.0,77,0.00,CLR,CLR,0.00,0.0,WeatherDisplay:10.37,2013-01-06 21:25:00,
2013-01-06 15:30:00,32.2,25.8,30.19,WNW,299,3.0,8.0,77,0.00,CLR,CLR,0.00,0.0,WeatherDisplay:10.37,2013-01-06 21:30:00,
2013-01-06 15:35:00,31.9,25.8,30.19,WNW,295,6.0,9.0,78,0.00,CLR,CLR,0.00,0.0,WeatherDisplay:10.37,2013-01-06 21:35:00,
2013-01-06 15:40:00,32.0,25.9,30.20,WNW,298,5.0,9.0,78,0.00,CLR,CLR,0.00,0.0,WeatherDisplay:10.37,2013-01-06 21:40:00,
2013-01-06 15:45:00,31.9,25.8,30.20,WNW,303,5.0,9.0,78,0.00,CLR,CLR,0.00,0.0,WeatherDisplay:10.37,2013-01-06 21:45:00,
2013-01-06 15:55:00,31.6,25.5,30.20,WNW,302,5.0,6.0,78,0.00,CLR,CLR,0.00,0.0,WeatherDisplay:10.37,2013-01-06 21:55:00,
2013-01-06 16:00:00,31.5,25.7,30.21,WNW,301,3.0,5.0,79,0.00,CLR,CLR,0.00,0.0,WeatherDisplay:10.37,2013-01-06 22:00:00,
2013-01-06 16:05:00,31.2,25.4,30.21,WNW,300,3.0,8.0,79,0.00,CLR,CLR,0.00,0.0,WeatherDisplay:10.37,2013-01-06 22:05:00,
2013-01-06 16:10:00,31.0,25.2,30.21,WNW,298,3.0,6.0,79,0.00,CLR,CLR,0.00,0.0,WeatherDisplay:10.37,2013-01-06 22:10:00,
2013-01-06 16:15:00,30.6,25.1,30.21,WNW,300,3.0,5.0,80,0.00,CLR,CLR,0.00,0.0,WeatherDisplay:10.37,2013-01-06 22:15:00,
2013-01-06 16:20:00,30.1,24.6,30.21,WNW,303,2.0,5.0,80,0.00,CLR,CLR,0.00,0.0,WeatherDisplay:10.37,2013-01-06 22:20:00,
2013-01-06 16:25:00,29.6,24.4,30.22,NW,304,2.0,5.0,81,0.00,CLR,CLR,0.00,0.0,WeatherDisplay:10.37,2013-01-06 22:25:00,
2013-01-06 16:30:00,29.0,24.2,30.22,NW,306,2.0,4.0,82,0.00,CLR,CLR,0.00,0.0,WeatherDisplay:10.37,2013-01-06 22:30:00,
2013-01-06 16:35:00,28.4,23.9,30.22,WNW,303,3.0,4.0,83,0.00,CLR,CLR,0.00,0.0,WeatherDisplay:10.37,2013-01-06 22:35:00,
2013-01-06 16:40:00,27.8,23.3,30.23,WNW,301,2.0,4.0,83,0.00,CLR,CLR,0.00,0.0,WeatherDisplay:10.37,2013-01-06 22:40:00,
2013-01-06 16:50:00,27.2,23.3,30.24,WNW,297,3.0,4.0,85,0.00,CLR,CLR,0.00,0.0,WeatherDisplay:10.37,2013-01-06 22:50:00,
2013-01-06 16:55:00,26.9,23.0,30.24,WNW,298,2.0,4.0,85,0.00,CLR,CLR,0.00,0.0,WeatherDisplay:10.37,2013-01-06 22:55:00,
2013-01-06 17:00:00,26.5,22.6,30.24,WNW,299,2.0,4.0,85,0.00,CLR,CLR,0.00,0.0,WeatherDisplay:10.37,2013-01-06 23:00:00,
2013-01-06 17:05:00,26.0,22.4,30.24,WNW,298,2.0,3.0,86,0.00,CLR,CLR,0.00,0.0,WeatherDisplay:10.37,2013-01-06 23:05:00,
2013-01-06 17:10:00,25.5,22.2,30.24,WNW,298,1.0,2.0,87,0.00,CLR,CLR,0.00,0.0,WeatherDisplay:10.37,2013-01-06 23:10:00,
2013-01-06 17:15:00,25.4,22.0,30.25,WNW,298,1.0,3.0,87,0.00,CLR,CLR,0.00,0.0,WeatherDisplay:10.37,2013-01-06 23:15:00,
2013-01-06 17:20:00,25.3,22.0,30.25,WNW,298,1.0,3.0,87,0.00,CLR,CLR,0.00,0.0,WeatherDisplay:10.37,2013-01-06 23:20:00,
2013-01-06 17:25:00,25.2,21.9,30.25,WNW,298,2.0,3.0,87,0.00,CLR,CLR,0.00,0.0,WeatherDisplay:10.37,2013-01-06 23:25:00,
2013-01-06 17:30:00,25.1,21.8,30.26,WNW,298,2.0,3.0,87,0.00,CLR,CLR,0.00,0.0,WeatherDisplay:10.37,2013-01-06 23:30:00,
2013-01-06 17:35:00,24.9,21.6,30.26,WNW,298,2.0,3.0,87,0.00,CLR,CLR,0.00,0.0,WeatherDisplay:10.37,2013-01-06 23:35:00,
2013-01-06 17:40:00,24.2,20.6,30.26,WNW,297,2.0,4.0,86,0.00,CLR,CLR,0.00,0.0,WeatherDisplay:10.37,2013-01-06 23:40:00,
2013-01-06 17:50:00,23.8,21.0,30.27,WNW,295,3.0,5.0,89,0.00,CLR,CLR,0.00,0.0,WeatherDisplay:10.37,2013-01-06 23:50:00,
2013-01-06 17:55:00,24.0,21.2,30.28,WNW,298,1.0,4.0,89,0.00,CLR,CLR,0.00,0.0,WeatherDisplay:10.37,2013-01-06 23:55:00,
2013-01-06 18:00:00,23.9,21.2,30.28,WNW,301,1.0,2.0,89,0.00,CLR,CLR,0.00,0.0,WeatherDisplay:10.37,2013-01-07 00:00:00,
2013-01-06 18:05:00,24.0,21.5,30.28,WNW,301,0.0,1.0,90,0.00,CLR,CLR,0.00,0.0,WeatherDisplay:10.37,2013-01-07 00:05:00,
2013-01-06 18:10:00,23.7,20.4,30.28,WNW,301,2.0,3.0,87,0.00,CLR,CLR,0.00,0.0,WeatherDisplay:10.37,2013-01-07 00:10:00,
2013-01-06 18:15:00,23.2,20.1,30.29,WNW,298,2.0,3.0,88,0.00,CLR,CLR,0.00,0.0,WeatherDisplay:10.37,2013-01-07 00:15:00,
2013-01-06 18:20:00,23.2,20.5,30.29,West,279,2.0,3.0,89,0.00,CLR,CLR,0.00,0.0,WeatherDisplay:10.37,2013-01-07 00:20:00,
2013-01-06 18:25:00,23.5,21.0,30.29,West,265,2.0,3.0,90,0.00,CLR,CLR,0.00,0.0,WeatherDisplay:10.37,2013-01-07 00:25:00,
2013-01-06 18:35:00,23.5,20.7,30.30,West,264,2.0,4.0,89,0.00,CLR,CLR,0.00,0.0,WeatherDisplay:10.37,2013-01-07 00:35:00,
2013-01-06 18:45:00,23.0,20.0,30.30,West,272,1.0,3.0,88,0.00,CLR,CLR,0.00,0.0,WeatherDisplay:10.37,2013-01-07 00:45:00,
2013-01-06 18:50:00,22.6,19.9,30.30,West,273,2.0,3.0,89,0.00,CLR,CLR,0.00,0.0,WeatherDisplay:10.37,2013-01-07 00:50:00,
2013-01-06 18:55:00,21.6,18.3,30.30,West,272,1.0,3.0,87,0.00,CLR,CLR,0.00,0.0,WeatherDisplay:10.37,2013-01-07 00:55:00,
2013-01-06 19:00:00,21.3,18.8,30.30,West,272,1.0,2.0,90,0.00,CLR,CLR,0.00,0.0,WeatherDisplay:10.37,2013-01-07 01:00:00,
2013-01-06 19:05:00,21.4,19.1,30.30,West,274,1.0,3.0,91,0.00,CLR,CLR,0.00,0.0,WeatherDisplay:10.37,2013-01-07 01:05:00,
2013-01-06 19:15:00,21.2,19.0,30.30,West,277,1.0,3.0,91,0.00,CLR,CLR,0.00,0.0,WeatherDisplay:10.37,2013-01-07 01:15:00,
2013-01-06 19:20:00,21.1,18.9,30.30,West,277,2.0,3.0,91,0.00,CLR,CLR,0.00,0.0,WeatherDisplay:10.37,2013-01-07 01:20:00,
2013-01-06 19:25:00,21.1,18.9,30.30,West,277,2.0,3.0,91,0.00,CLR,CLR,0.00,0.0,WeatherDisplay:10.37,2013-01-07 01:25:00,
2013-01-06 19:35:00,20.8,18.8,30.31,West,277,1.0,2.0,92,0.00,CLR,CLR,0.00,0.0,WeatherDisplay:10.37,2013-01-07 01:35:00,
2013-01-06 19:40:00,20.7,18.7,30.31,West,276,1.0,3.0,92,0.00,CLR,CLR,0.00,0.0,WeatherDisplay:10.37,2013-01-07 01:40:00,
2013-01-06 19:45:00,20.7,18.7,30.32,West,276,2.0,3.0,92,0.00,CLR,CLR,0.00,0.0,WeatherDisplay:10.37,2013-01-07 01:45:00,
2013-01-06 19:50:00,20.7,18.7,30.32,West,276,2.0,3.0,92,0.00,CLR,CLR,0.00,0.0,WeatherDisplay:10.37,2013-01-07 01:50:00,
2013-01-06 19:55:00,20.8,18.9,30.32,West,276,3.0,5.0,92,0.00,CLR,CLR,0.00,0.0,WeatherDisplay:10.37,2013-01-07 01:55:00,
2013-01-06 20:00:00,20.9,18.9,30.33,West,275,2.0,3.0,92,0.00,CLR,CLR,0.00,0.0,WeatherDisplay:10.37,2013-01-07 02:00:00,
2013-01-06 20:05:00,20.9,18.9,30.32,West,274,1.0,3.0,92,0.00,CLR,CLR,0.00,0.0,WeatherDisplay:10.37,2013-01-07 02:05:00,
2013-01-06 20:10:00,20.9,18.9,30.33,West,277,2.0,4.0,92,0.00,CLR,CLR,0.00,0.0,WeatherDisplay:10.37,2013-01-07 02:10:00,
2013-01-06 20:15:00,21.0,19.3,30.32,West,280,2.0,3.0,93,0.00,CLR,CLR,0.00,0.0,WeatherDisplay:10.37,2013-01-07 02:15:00,
2013-01-06 20:25:00,20.5,18.5,30.33,WNW,282,1.0,2.0,92,0.00,CLR,CLR,0.00,0.0,WeatherDisplay:10.37,2013-01-07 02:25:00,
2013-01-06 20:30:00,20.2,18.0,30.33,WNW,287,1.0,3.0,91,0.00,CLR,CLR,0.00,0.0,WeatherDisplay:10.37,2013-01-07 02:30:00,
2013-01-06 20:35:00,20.1,18.1,30.33,WNW,292,1.0,3.0,92,0.00,CLR,CLR,0.00,0.0,WeatherDisplay:10.37,2013-01-07 02:35:00,
2013-01-06 20:40:00,19.9,17.9,30.33,WNW,291,1.0,3.0,92,0.00,CLR,CLR,0.00,0.0,WeatherDisplay:10.37,2013-01-07 02:40:00,
2013-01-06 20:45:00,19.7,17.8,30.33,WNW,287,1.0,3.0,92,0.00,CLR,CLR,0.00,0.0,WeatherDisplay:10.37,2013-01-07 02:45:00,
2013-01-06 20:50:00,19.7,18.0,30.33,WNW,286,1.0,2.0,93,0.00,CLR,CLR,0.00,0.0,WeatherDisplay:10.37,2013-01-07 02:50:00,
2013-01-06 20:55:00,19.8,18.1,30.33,WNW,286,0.0,2.0,93,0.00,CLR,CLR,0.00,0.0,WeatherDisplay:10.37,2013-01-07 02:55:00,
2013-01-06 21:00:00,19.6,17.7,30.33,WNW,286,0.0,1.0,92,0.00,CLR,CLR,0.00,0.0,WeatherDisplay:10.37,2013-01-07 03:00:00,
2013-01-06 21:05:00,19.4,17.4,30.33,WNW,286,0.0,0.0,92,0.00,CLR,CLR,0.00,0.0,WeatherDisplay:10.37,2013-01-07 03:05:00,
2013-01-06 21:15:00,18.9,17.0,30.33,WNW,286,0.0,0.0,92,0.00,CLR,CLR,0.00,0.0,WeatherDisplay:10.37,2013-01-07 03:15:00,
2013-01-06 21:20:00,18.8,16.8,30.33,WNW,286,0.0,0.0,92,0.00,CLR,CLR,0.00,0.0,WeatherDisplay:10.37,2013-01-07 03:20:00,
2013-01-06 21:25:00,18.6,17.0,30.33,WNW,286,0.0,1.0,93,0.00,CLR,CLR,0.00,0.0,WeatherDisplay:10.37,2013-01-07 03:25:00,
2013-01-06 21:30:00,18.5,16.6,30.32,WNW,286,0.0,0.0,92,0.00,CLR,CLR,0.00,0.0,WeatherDisplay:10.37,2013-01-07 03:30:00,
2013-01-06 21:35:00,18.6,17.2,30.33,WNW,286,0.0,2.0,94,0.00,CLR,CLR,0.00,0.0,WeatherDisplay:10.37,2013-01-07 03:35:00,
2013-01-06 21:40:00,19.0,17.8,30.33,WNW,286,1.0,2.0,95,0.00,CLR,CLR,0.00,0.0,WeatherDisplay:10.37,2013-01-07 03:40:00,
2013-01-06 21:45:00,18.6,16.9,30.33,WNW,286,1.0,3.0,93,0.00,CLR,CLR,0.00,0.0,WeatherDisplay:10.37,2013-01-07 03:45:00,
2013-01-06 21:50:00,17.9,16.0,30.33,WNW,286,0.0,1.0,92,0.00,CLR,CLR,0.00,0.0,WeatherDisplay:10.37,2013-01-07 03:50:00,
2013-01-06 21:55:00,17.4,15.3,30.34,WNW,286,0.0,0.0,91,0.00,CLR,CLR,0.00,0.0,WeatherDisplay:10.37,2013-01-07 03:55:00,
2013-01-06 22:00:00,17.1,14.9,30.34,WNW,286,0.0,0.0,91,0.00,CLR,CLR,0.00,0.0,WeatherDisplay:10.37,2013-01-07 04:00:00,
2013-01-06 22:05:00,17.0,15.0,30.34,WNW,286,0.0,1.0,92,0.00,CLR,CLR,0.00,0.0,WeatherDisplay:10.37,2013-01-07 04:05:00,
2013-01-06 22:10:00,17.0,15.3,30.34,WNW,286,0.0,0.0,93,0.00,CLR,CLR,0.00,0.0,WeatherDisplay:10.37,2013-01-07 04:10:00,
2013-01-06 22:15:00,16.9,15.2,30.34,WNW,286,0.0,0.0,93,0.00,CLR,CLR,0.00,0.0,WeatherDisplay:10.37,2013-01-07 04:15:00,
2013-01-06 22:20:00,16.9,15.5,30.34,WNW,286,0.0,0.0,94,0.00,CLR,CLR,0.00,0.0,WeatherDisplay:10.37,2013-01-07 04:20:00,
2013-01-06 22:25:00,17.0,15.6,30.34,WNW,286,0.0,0.0,94,0.00,CLR,CLR,0.00,0.0,WeatherDisplay:10.37,2013-01-07 04:25:00,
2013-01-06 22:30:00,16.7,14.8,30.34,WNW,286,0.0,1.0,92,0.00,CLR,CLR,0.00,0.0,WeatherDisplay:10.37,2013-01-07 04:30:00,
2013-01-06 22:35:00,16.7,15.0,30.34,WNW,286,0.0,0.0,93,0.00,CLR,CLR,0.00,0.0,WeatherDisplay:10.37,2013-01-07 04:35:00,
2013-01-06 22:40:00,16.7,15.0,30.34,WNW,286,0.0,0.0,93,0.00,CLR,CLR,0.00,0.0,WeatherDisplay:10.37,2013-01-07 04:40:00,
2013-01-06 22:45:00,16.2,14.1,30.34,WNW,286,0.0,1.0,91,0.00,CLR,CLR,0.00,0.0,WeatherDisplay:10.37,2013-01-07 04:45:00,
2013-01-06 22:50:00,15.9,14.0,30.34,WNW,286,0.0,0.0,92,0.00,CLR,CLR,0.00,0.0,WeatherDisplay:10.37,2013-01-07 04:50:00,
2013-01-06 22:55:00,15.7,13.8,30.34,WNW,286,0.0,1.0,92,0.00,CLR,CLR,0.00,0.0,WeatherDisplay:10.37,2013-01-07 04:55:00,
2013-01-06 23:05:00,15.3,13.2,30.35,WNW,286,0.0,0.0,91,0.00,CLR,CLR,0.00,0.0,WeatherDisplay:10.37,2013-01-07 05:05:00,
2013-01-06 23:10:00,15.2,13.3,30.35,WNW,286,0.0,1.0,92,0.00,CLR,CLR,0.00,0.0,WeatherDisplay:10.37,2013-01-07 05:10:00,
2013-01-06 23:15:00,15.5,14.1,30.35,WNW,286,0.0,1.0,94,0.00,CLR,CLR,0.00,0.0,WeatherDisplay:10.37,2013-01-07 05:15:00,
2013-01-06 23:20:00,15.6,14.2,30.35,WNW,286,0.0,0.0,94,0.00,CLR,CLR,0.00,0.0,WeatherDisplay:10.37,2013-01-07 05:20:00,
2013-01-06 23:25:00,15.5,13.8,30.34,WNW,286,0.0,0.0,93,0.00,CLR,CLR,0.00,0.0,WeatherDisplay:10.37,2013-01-07 05:25:00,
2013-01-06 23:30:00,15.5,13.8,30.34,WNW,286,0.0,1.0,93,0.00,CLR,CLR,0.00,0.0,WeatherDisplay:10.37,2013-01-07 05:30:00,
2013-01-06 23:35:00,15.5,13.8,30.33,WNW,286,1.0,1.0,93,0.00,CLR,CLR,0.00,0.0,WeatherDisplay:10.37,2013-01-07 05:35:00,
2013-01-06 23:40:00,15.5,13.8,30.33,WNW,286,0.0,2.0,93,0.00,CLR,CLR,0.00,0.0,WeatherDisplay:10.37,2013-01-07 05:40:00,
2013-01-06 23:45:00,15.6,14.2,30.33,WNW,286,0.0,1.0,94,0.00,CLR,CLR,0.00,0.0,WeatherDisplay:10.37,2013-01-07 05:45:00,
2013-01-06 23:50:00,15.9,14.5,30.34,WNW,284,0.0,3.0,94,0.00,CLR,CLR,0.00,0.0,WeatherDisplay:10.37,2013-01-07 05:50:00,
2013-01-06 23:55:00,16.3,14.9,30.34,WNW,282,1.0,2.0,94,0.00,CLR,CLR,0.00,0.0,WeatherDisplay:10.37,2013-01-07 05:55:00,